Terminal Aerodrome Forecast
Issued by NWS

Home | Current Version | Previous Version | Graphics & Text | Print | Product List | Glossary Off
Versions: 1 2 3 4 5 6 7 8 9 10 11 12 13 14

000
FTUS43 KIWX 020500
TAFSBN
TAF
KSBN 020520Z 0206/0306 00000KT P6SM FEW120
     FM020800 00000KT 4SM BR SCT100
     FM021300 VRB03KT P6SM SCT100
     FM021700 32007KT P6SM SCT050
     FM030100 34003KT P6SM FEW250=

USA.gov is the U.S. government's official web portal to all federal, state and local government web resources and services.